Hartland Point — ZIQS6 — position and weather

sailwx.info

Track history (hours):
 
Tides and Currents Weather Stations Pressure Air Temp Water Temp Dewpoint Dewpoint Depression Visibility Wind Speed Wind Dir Waves Ship Positions

Hartland Point

Last reported at 2016-Sep-16 17:32 UTC. Time now 2016-Sep-26 08:50 UTC.
Position N 34°39' E 033°01'.
Warning: this ship's position is 9 days out of date.

Length 193 m; draft 5.9 m.

Type: Ship. MMSI: 235505000.

Date/timePositionNaut miles runAvg speedWind from/ knotsBaromVisibWave heightAir tempDewpointWater temp
2016-Sep-16 17:32N 34°39' E 033°01'0 0.0
2016-Sep-16 15:31N 34°39' E 033°01'6 1.9
2016-Sep-16 12:33N 34°36' E 033°07'19 6.3
2016-Sep-16 09:33N 34°30' E 032°45'  
2016-Sep-13 11:34N 36°30' E 014°10'2512.3
2016-Sep-13 09:30N 36°36' E 013°39'19512.2
2016-Sep-12 17:33N 37°36' E 009°46'3812.6
2016-Sep-12 14:32N 37°43' E 008°59'1212.6
2016-Sep-12 13:33N 37°45' E 008°44'51212.3
2016-Sep-10 20:05N 36°23' W 001°50'612.1
2016-Sep-10 19:33N 36°22' W 001°58'1212.1
2016-Sep-10 18:33N 36°21' W 002°13'1312.6
2016-Sep-10 17:31N 36°20' W 002°29'1512.5
2016-Sep-10 16:16N 36°18' W 002°48'912.3
2016-Sep-10 15:33N 36°16' W 002°59'1312.4
2016-Sep-10 14:28N 36°14' W 003°15'1312.7
2016-Sep-10 13:26N 36°12' W 003°31'8513.8
2016-Sep-10 07:16N 36°00' W 005°15'9 0.8
2016-Sep-09 19:31N 36°08' W 005°22'0 0.0
2016-Sep-09 18:33N 36°08' W 005°22'0 0.0
2016-Sep-09 17:33N 36°08' W 005°22'78 4.2
2016-Sep-08 23:07N 36°00' W 006°57'812.2
2016-Sep-08 22:30N 36°02' W 007°07'1612.2
2016-Sep-08 21:10N 36°07' W 007°26'2012.1
2016-Sep-08 19:28N 36°12' W 007°50'1211.5
2016-Sep-08 18:27N 36°16' W 008°04'1111.8
2016-Sep-08 17:33N 36°19' W 008°16'2 2.1
2016-Sep-08 16:33N 36°19' W 008°14'1212.5
2016-Sep-08 15:33N 36°22' W 008°29'1212.4
2016-Sep-08 14:33N 36°26' W 008°44'1512.5
2016-Sep-08 13:24N 36°30' W 009°01'1412.3
2016-Sep-08 12:17N 36°34' W 009°17'2211.9
2016-Sep-08 10:26N 36°51' W 009°34'1112.4
2016-Sep-08 09:33N 37°02' W 009°38'1212.2
2016-Sep-08 08:33N 37°14' W 009°41'2813.5
2016-Sep-08 06:28N 37°41' W 009°49'1212.8
2016-Sep-08 05:32N 37°53' W 009°53'1312.9
2016-Sep-08 04:33N 38°05' W 009°56'1313.2
2016-Sep-08 03:33N 38°18' W 009°60'1313.0
2016-Sep-08 02:33N 38°31' W 010°04'1212.3
2016-Sep-08 01:33N 38°43' W 010°07'1312.8
2016-Sep-08 00:33N 38°55' W 010°07'1312.9
2016-Sep-07 23:33N 39°08' W 010°06'1313.0
2016-Sep-07 22:33N 39°21' W 010°06'101 9.7
2016-Sep-07 12:09N 41°00' W 010°30'0 0.4
2016-Sep-07 11:15N 41°01' W 010°30'1 0.3
2016-Sep-07 09:33N 41°01' W 010°30'1 0.5
2016-Sep-07 08:32N 41°02' W 010°30'1 0.7
2016-Sep-07 07:10N 41°03' W 010°29'1 1.0
2016-Sep-07 06:29N 41°03' W 010°29'3 1.1
2016-Sep-07 03:33N 41°06' W 010°31'1 1.4
2016-Sep-07 02:33N 41°08' W 010°32'1 1.4
2016-Sep-07 01:33N 41°09' W 010°33'1 1.2
2016-Sep-07 00:33N 41°10' W 010°34'1 1.2
2016-Sep-06 23:33N 41°11' W 010°35'2 1.5
2016-Sep-06 22:31N 41°12' W 010°36'1 1.4
2016-Sep-06 21:33N 41°13' W 010°37'1 1.2
2016-Sep-06 20:33N 41°14' W 010°38'1 1.0
2016-Sep-06 19:33N 41°15' W 010°39'1 0.9
2016-Sep-06 18:32N 41°15' W 010°40'1 0.8
2016-Sep-06 17:33N 41°16' W 010°41'  
Track history (hours):
 
Tides and Currents Weather Stations Pressure Air Temp Water Temp Dewpoint Dewpoint Depression Visibility Wind Speed Wind Dir Waves Ship Positions

Hartland Point

Last reported at 2016-Sep-16 17:32 UTC. Time now 2016-Sep-26 08:50 UTC.
Position N 34°39' E 033°01'.
Warning: this ship's position is 9 days out of date.

Length 193 m; draft 5.9 m.

Type: Ship. MMSI: 235505000.

Date/timePositionNaut miles runAvg speedWind from/ knotsBaromVisibWave heightAir tempDewpointWater temp
2016-Sep-16 17:32N 34°39' E 033°01'0 0.0
2016-Sep-16 15:31N 34°39' E 033°01'6 1.9
2016-Sep-16 12:33N 34°36' E 033°07'19 6.3
2016-Sep-16 09:33N 34°30' E 032°45'  
2016-Sep-13 11:34N 36°30' E 014°10'2512.3
2016-Sep-13 09:30N 36°36' E 013°39'19512.2
2016-Sep-12 17:33N 37°36' E 009°46'3812.6
2016-Sep-12 14:32N 37°43' E 008°59'1212.6
2016-Sep-12 13:33N 37°45' E 008°44'51212.3
2016-Sep-10 20:05N 36°23' W 001°50'612.1
2016-Sep-10 19:33N 36°22' W 001°58'1212.1
2016-Sep-10 18:33N 36°21' W 002°13'1312.6
2016-Sep-10 17:31N 36°20' W 002°29'1512.5
2016-Sep-10 16:16N 36°18' W 002°48'912.3
2016-Sep-10 15:33N 36°16' W 002°59'1312.4
2016-Sep-10 14:28N 36°14' W 003°15'1312.7
2016-Sep-10 13:26N 36°12' W 003°31'8513.8
2016-Sep-10 07:16N 36°00' W 005°15'9 0.8
2016-Sep-09 19:31N 36°08' W 005°22'0 0.0
2016-Sep-09 18:33N 36°08' W 005°22'0 0.0
2016-Sep-09 17:33N 36°08' W 005°22'78 4.2
2016-Sep-08 23:07N 36°00' W 006°57'812.2
2016-Sep-08 22:30N 36°02' W 007°07'1612.2
2016-Sep-08 21:10N 36°07' W 007°26'2012.1
2016-Sep-08 19:28N 36°12' W 007°50'1211.5
2016-Sep-08 18:27N 36°16' W 008°04'1111.8
2016-Sep-08 17:33N 36°19' W 008°16'2 2.1
2016-Sep-08 16:33N 36°19' W 008°14'1212.5
2016-Sep-08 15:33N 36°22' W 008°29'1212.4
2016-Sep-08 14:33N 36°26' W 008°44'1512.5
2016-Sep-08 13:24N 36°30' W 009°01'1412.3
2016-Sep-08 12:17N 36°34' W 009°17'2211.9
2016-Sep-08 10:26N 36°51' W 009°34'1112.4
2016-Sep-08 09:33N 37°02' W 009°38'1212.2
2016-Sep-08 08:33N 37°14' W 009°41'2813.5
2016-Sep-08 06:28N 37°41' W 009°49'1212.8
2016-Sep-08 05:32N 37°53' W 009°53'1312.9
2016-Sep-08 04:33N 38°05' W 009°56'1313.2
2016-Sep-08 03:33N 38°18' W 009°60'1313.0
2016-Sep-08 02:33N 38°31' W 010°04'1212.3
2016-Sep-08 01:33N 38°43' W 010°07'1312.8
2016-Sep-08 00:33N 38°55' W 010°07'1312.9
2016-Sep-07 23:33N 39°08' W 010°06'1313.0
2016-Sep-07 22:33N 39°21' W 010°06'101 9.7
2016-Sep-07 12:09N 41°00' W 010°30'0 0.4
2016-Sep-07 11:15N 41°01' W 010°30'1 0.3
2016-Sep-07 09:33N 41°01' W 010°30'1 0.5
2016-Sep-07 08:32N 41°02' W 010°30'1 0.7
2016-Sep-07 07:10N 41°03' W 010°29'1 1.0
2016-Sep-07 06:29N 41°03' W 010°29'3 1.1
2016-Sep-07 03:33N 41°06' W 010°31'1 1.4
2016-Sep-07 02:33N 41°08' W 010°32'1 1.4
2016-Sep-07 01:33N 41°09' W 010°33'1 1.2
2016-Sep-07 00:33N 41°10' W 010°34'1 1.2
2016-Sep-06 23:33N 41°11' W 010°35'2 1.5
2016-Sep-06 22:31N 41°12' W 010°36'1 1.4
2016-Sep-06 21:33N 41°13' W 010°37'1 1.2
2016-Sep-06 20:33N 41°14' W 010°38'1 1.0
2016-Sep-06 19:33N 41°15' W 010°39'1 0.9
2016-Sep-06 18:32N 41°15' W 010°40'1 0.8
2016-Sep-06 17:33N 41°16' W 010°41'  

Dump ship's entire track history